createdAt,value
2018-09-18T00:00:07.045Z,16.80
2018-09-18T00:04:15.428Z,16.80
2018-09-18T00:08:23.752Z,16.80
2018-09-18T00:12:32.015Z,16.90
2018-09-18T00:16:40.291Z,16.90
2018-09-18T00:20:48.580Z,16.90
2018-09-18T00:24:56.874Z,16.90
2018-09-18T00:29:05.154Z,16.90
2018-09-18T00:33:13.466Z,16.90
2018-09-18T00:37:21.922Z,16.90
2018-09-18T00:41:30.163Z,16.90
2018-09-18T00:45:38.417Z,17.00
2018-09-18T00:49:46.687Z,17.00
2018-09-18T00:53:54.991Z,17.00
2018-09-18T00:58:03.253Z,17.00
2018-09-18T01:02:11.625Z,17.00
2018-09-18T01:06:19.922Z,17.00
2018-09-18T01:10:28.235Z,17.00
2018-09-18T01:14:37.296Z,17.10
2018-09-18T01:18:45.624Z,17.20
2018-09-18T01:22:53.888Z,17.20
2018-09-18T01:27:02.209Z,17.20
2018-09-18T01:31:10.595Z,17.30
2018-09-18T01:35:18.941Z,17.40
2018-09-18T01:39:27.184Z,17.30
2018-09-18T01:43:35.522Z,17.20
2018-09-18T01:47:43.776Z,17.20
2018-09-18T01:51:52.176Z,17.20
2018-09-18T01:56:00.458Z,17.20
2018-09-18T02:00:08.809Z,17.20
2018-09-18T02:04:17.115Z,17.20
2018-09-18T02:08:25.408Z,17.30
2018-09-18T02:12:33.753Z,17.20
2018-09-18T02:16:42.057Z,17.30
2018-09-18T02:20:50.345Z,17.30
2018-09-18T02:24:58.590Z,17.20
2018-09-18T02:29:06.901Z,17.20
2018-09-18T02:33:15.195Z,17.20
2018-09-18T02:37:23.509Z,17.20
2018-09-18T02:41:31.836Z,17.30
2018-09-18T02:45:40.333Z,17.30
2018-09-18T02:49:49.284Z,17.40
2018-09-18T02:53:57.579Z,17.30
2018-09-18T02:58:05.883Z,17.30
2018-09-18T03:02:14.197Z,17.30
2018-09-18T03:06:22.515Z,17.40
2018-09-18T03:10:30.832Z,17.40
2018-09-18T03:14:39.147Z,17.20
2018-09-18T03:18:47.496Z,17.30
2018-09-18T03:22:55.794Z,17.30
2018-09-18T03:27:04.040Z,17.30
2018-09-18T03:31:12.282Z,17.40
2018-09-18T03:35:20.573Z,17.30
2018-09-18T03:39:28.869Z,17.30
2018-09-18T03:43:37.152Z,17.30
2018-09-18T03:47:45.465Z,17.20
2018-09-18T03:51:53.735Z,17.30
2018-09-18T04:00:10.131Z,17.40
2018-09-18T04:04:18.434Z,17.40
2018-09-18T04:08:26.718Z,17.30
2018-09-18T04:12:34.994Z,17.40
2018-09-18T04:16:43.299Z,17.40
2018-09-18T04:20:51.589Z,17.50
2018-09-18T04:24:59.876Z,17.50
2018-09-18T04:29:08.878Z,17.40
2018-09-18T04:33:17.197Z,17.50
2018-09-18T04:37:25.535Z,17.50
2018-09-18T04:41:33.860Z,17.50
2018-09-18T04:45:42.117Z,17.50
2018-09-18T04:49:50.407Z,17.60
2018-09-18T04:53:58.755Z,17.50
2018-09-18T04:58:07.059Z,17.50
2018-09-18T05:02:15.381Z,17.50
2018-09-18T05:06:23.627Z,17.50
2018-09-18T05:10:31.891Z,17.40
2018-09-18T05:14:40.240Z,17.50
2018-09-18T05:18:48.515Z,17.40
2018-09-18T05:22:56.796Z,17.60
2018-09-18T05:27:05.095Z,17.50
2018-09-18T05:31:13.396Z,17.50
2018-09-18T05:35:21.660Z,17.50
2018-09-18T05:39:29.967Z,17.40
2018-09-18T05:43:38.249Z,17.30
2018-09-18T05:47:46.509Z,17.40
2018-09-18T05:51:54.810Z,17.60
2018-09-18T05:56:03.161Z,17.50
2018-09-18T06:00:11.435Z,17.60
2018-09-18T06:04:19.666Z,17.60
2018-09-18T06:08:27.979Z,17.60
2018-09-18T06:12:36.431Z,17.60
2018-09-18T06:16:44.682Z,17.70
2018-09-18T06:20:52.948Z,17.70
2018-09-18T06:25:01.253Z,17.80
2018-09-18T06:29:09.512Z,17.80
2018-09-18T06:33:17.845Z,17.90
2018-09-18T06:37:26.092Z,17.90
2018-09-18T06:41:34.385Z,17.90
2018-09-18T06:45:42.672Z,18.00
2018-09-18T06:49:50.962Z,18.20
2018-09-18T06:53:59.233Z,18.40
2018-09-18T06:58:07.511Z,18.40
2018-09-18T07:02:15.843Z,18.50
2018-09-18T07:06:24.205Z,18.70
2018-09-18T07:10:32.448Z,18.80
2018-09-18T07:14:40.712Z,18.80
2018-09-18T07:18:48.962Z,18.90
2018-09-18T07:22:57.240Z,19.00
2018-09-18T07:27:05.550Z,19.10
2018-09-18T07:31:13.815Z,19.20
2018-09-18T07:35:22.564Z,19.40
2018-09-18T07:39:30.828Z,19.40
2018-09-18T07:43:39.120Z,19.60
2018-09-18T07:47:47.366Z,19.80
2018-09-18T07:51:55.640Z,20.00
2018-09-18T07:56:03.930Z,20.20
2018-09-18T08:00:12.210Z,20.30
2018-09-18T08:04:20.505Z,20.40
2018-09-18T08:08:28.747Z,20.60
2018-09-18T08:12:37.039Z,20.90
2018-09-18T08:16:45.324Z,21.20
2018-09-18T08:20:53.625Z,21.20
2018-09-18T08:25:02.136Z,21.50
2018-09-18T08:33:18.411Z,21.70
2018-09-18T08:37:26.765Z,22.10
2018-09-18T08:41:35.063Z,22.00
2018-09-18T08:45:43.379Z,22.40
2018-09-18T08:53:59.656Z,22.90
2018-09-18T08:58:08.045Z,22.90
2018-09-18T09:02:16.845Z,23.20
2018-09-18T09:06:25.176Z,23.20
2018-09-18T09:10:33.425Z,23.50
2018-09-18T09:14:41.809Z,23.60
2018-09-18T09:18:50.043Z,23.90
2018-09-18T09:22:58.413Z,24.00
2018-09-18T09:27:06.354Z,24.30
2018-09-18T09:31:14.648Z,24.50
2018-09-18T09:35:22.874Z,24.70
2018-09-18T09:39:31.133Z,25.10
2018-09-18T09:43:39.443Z,25.20
2018-09-18T09:47:47.696Z,25.30
2018-09-18T09:51:55.972Z,25.60
2018-09-18T09:56:04.238Z,25.70
2018-09-18T10:00:17.881Z,25.90
2018-09-18T10:04:26.153Z,26.20
2018-09-18T10:08:34.442Z,26.20
2018-09-18T10:12:42.710Z,26.50
2018-09-18T10:16:50.975Z,26.70
2018-09-18T10:20:59.298Z,26.80
2018-09-18T10:25:07.643Z,27.00
2018-09-18T10:29:15.930Z,27.20
2018-09-18T10:33:24.229Z,27.30
2018-09-18T10:37:32.571Z,27.50
2018-09-18T10:41:40.923Z,27.80
2018-09-18T10:45:49.119Z,27.90
2018-09-18T10:49:57.419Z,28.00
2018-09-18T10:54:05.683Z,28.10
2018-09-18T10:58:13.977Z,28.20
2018-09-18T11:02:22.279Z,28.10
2018-09-18T11:06:30.551Z,28.30
2018-09-18T11:10:38.796Z,28.30
2018-09-18T11:14:47.125Z,28.30
2018-09-18T11:18:55.425Z,28.40
2018-09-18T11:23:03.707Z,28.50
2018-09-18T11:27:11.918Z,28.50
2018-09-18T11:31:20.229Z,28.60
2018-09-18T11:35:28.464Z,28.60
2018-09-18T11:39:36.758Z,28.80
2018-09-18T11:43:45.043Z,28.90
2018-09-18T11:47:53.352Z,29.10
2018-09-18T11:52:01.630Z,29.30
2018-09-18T11:56:09.910Z,29.30
2018-09-18T12:00:18.313Z,29.40
2018-09-18T12:04:26.585Z,29.60
2018-09-18T12:08:34.819Z,29.60
2018-09-18T12:12:43.094Z,29.70
2018-09-18T12:16:51.375Z,29.60
2018-09-18T12:20:59.696Z,29.50
2018-09-18T12:25:07.938Z,29.60
2018-09-18T12:29:16.281Z,29.70
2018-09-18T12:33:24.541Z,29.70
2018-09-18T12:37:32.949Z,30.00
2018-09-18T12:41:41.513Z,30.10
2018-09-18T12:45:49.737Z,30.00
2018-09-18T12:49:58.339Z,29.80
2018-09-18T12:54:06.326Z,29.80
2018-09-18T12:58:14.581Z,29.80
2018-09-18T13:06:31.077Z,29.90
2018-09-18T13:10:39.117Z,30.00
2018-09-18T13:14:47.445Z,30.10
2018-09-18T13:18:55.720Z,30.20
2018-09-18T13:23:04.253Z,30.10
2018-09-18T13:27:12.654Z,30.10
2018-09-18T13:31:20.936Z,30.00
2018-09-18T13:35:29.160Z,30.20
2018-09-18T13:39:37.485Z,30.30
2018-09-18T13:43:45.861Z,30.30
2018-09-18T13:47:54.117Z,30.10
2018-09-18T13:52:02.508Z,30.10
2018-09-18T13:56:10.837Z,30.10
2018-09-18T14:00:19.118Z,30.30
2018-09-18T14:04:27.587Z,30.20
2018-09-18T14:08:35.814Z,30.20
2018-09-18T14:12:44.112Z,30.30
2018-09-18T14:16:52.379Z,30.10
2018-09-18T14:21:00.747Z,30.00
2018-09-18T14:25:09.015Z,29.90
2018-09-18T14:29:17.261Z,30.00
2018-09-18T14:33:25.525Z,29.90
2018-09-18T14:37:33.794Z,29.70
2018-09-18T14:41:42.065Z,29.70
2018-09-18T14:45:50.286Z,29.40
2018-09-18T14:49:58.571Z,29.60
2018-09-18T14:54:07.132Z,29.60
2018-09-18T14:58:15.413Z,29.70
2018-09-18T15:02:23.692Z,29.50
2018-09-18T15:06:32.044Z,29.60
2018-09-18T15:10:40.362Z,29.40
2018-09-18T15:14:48.636Z,29.40
2018-09-18T15:18:56.885Z,29.20
2018-09-18T15:23:05.158Z,29.10
2018-09-18T15:27:13.464Z,29.00
2018-09-18T15:31:21.704Z,29.00
2018-09-18T15:35:29.989Z,29.10
2018-09-18T15:43:46.285Z,28.90
2018-09-18T15:47:54.572Z,29.00
2018-09-18T15:52:02.907Z,28.90
2018-09-18T15:56:11.110Z,28.70
2018-09-18T16:00:19.363Z,28.60
2018-09-18T16:04:27.613Z,28.60
2018-09-18T16:08:35.855Z,28.50
2018-09-18T16:12:44.135Z,28.50
2018-09-18T16:16:52.407Z,28.40
2018-09-18T16:21:00.729Z,28.30
2018-09-18T16:25:09.182Z,28.00
2018-09-18T16:29:17.468Z,28.00
2018-09-18T16:33:25.735Z,27.80
2018-09-18T16:37:34.064Z,27.70
2018-09-18T16:41:42.307Z,27.60
2018-09-18T16:45:50.570Z,27.50
2018-09-18T16:49:58.866Z,27.30
2018-09-18T16:54:07.145Z,27.00
2018-09-18T16:58:15.536Z,26.80
2018-09-18T17:02:23.862Z,26.50
2018-09-18T17:06:32.092Z,26.30
2018-09-18T17:10:40.375Z,26.10
2018-09-18T17:14:48.643Z,26.00
2018-09-18T17:18:56.953Z,25.90
2018-09-18T17:23:05.236Z,25.90
2018-09-18T17:27:13.557Z,25.80
2018-09-18T17:31:21.831Z,25.60
2018-09-18T17:35:30.170Z,25.60
2018-09-18T17:39:38.416Z,25.50
2018-09-18T17:43:46.708Z,25.30
2018-09-18T17:47:54.993Z,25.20
2018-09-18T17:52:03.842Z,25.10
2018-09-18T17:56:12.094Z,25.00
2018-09-18T18:00:20.349Z,25.00
2018-09-18T18:04:28.680Z,24.90
2018-09-18T18:08:36.956Z,24.90
2018-09-18T18:12:45.200Z,24.90
2018-09-18T18:16:53.488Z,24.70
2018-09-18T18:21:02.601Z,24.50
2018-09-18T18:25:10.833Z,24.40
2018-09-18T18:29:19.130Z,24.50
2018-09-18T18:33:27.461Z,24.40
2018-09-18T18:37:35.792Z,24.30
2018-09-18T18:41:44.231Z,24.10
2018-09-18T18:45:52.541Z,24.00
2018-09-18T18:50:00.929Z,24.00
2018-09-18T18:54:09.206Z,23.90
2018-09-18T18:58:17.521Z,23.80
2018-09-18T19:02:25.822Z,23.70
2018-09-18T19:06:34.295Z,23.60
2018-09-18T19:10:42.369Z,23.40
2018-09-18T19:14:50.704Z,23.40
2018-09-18T19:18:59.118Z,23.20
2018-09-18T19:23:07.418Z,23.10
2018-09-18T19:27:15.726Z,23.00
2018-09-18T19:31:24.034Z,23.00
2018-09-18T19:35:32.992Z,23.00
2018-09-18T19:39:41.372Z,22.90
2018-09-18T19:43:49.666Z,22.80
2018-09-18T19:47:58.006Z,22.70
2018-09-18T19:52:06.439Z,22.60
2018-09-18T19:56:14.854Z,22.40
2018-09-18T20:00:23.113Z,22.20
2018-09-18T20:04:31.437Z,22.10
2018-09-18T20:08:39.712Z,22.00
2018-09-18T20:12:48.099Z,21.90
2018-09-18T20:16:56.425Z,21.90
2018-09-18T20:21:04.745Z,21.70
2018-09-18T20:25:13.045Z,21.70
2018-09-18T20:29:21.377Z,21.60
2018-09-18T20:33:29.668Z,21.50
2018-09-18T20:37:37.961Z,21.50
2018-09-18T20:41:46.286Z,21.40
2018-09-18T20:45:54.513Z,21.40
2018-09-18T20:50:02.841Z,21.30
2018-09-18T20:54:11.201Z,21.20
2018-09-18T20:58:19.569Z,21.10
2018-09-18T21:02:27.851Z,21.00
2018-09-18T21:06:36.126Z,20.90
2018-09-18T21:10:44.430Z,20.90
2018-09-18T21:14:52.796Z,20.80
2018-09-18T21:19:01.096Z,20.70
2018-09-18T21:23:09.427Z,20.60
2018-09-18T21:27:17.666Z,20.60
2018-09-18T21:31:25.951Z,20.50
2018-09-18T21:35:34.230Z,20.50
2018-09-18T21:39:42.554Z,20.30
2018-09-18T21:43:50.845Z,20.20
2018-09-18T21:47:59.142Z,20.10
2018-09-18T21:52:07.588Z,20.10
2018-09-18T21:56:15.992Z,20.00
2018-09-18T22:00:24.250Z,20.00
2018-09-18T22:04:32.519Z,19.90
2018-09-18T22:08:40.768Z,19.80
2018-09-18T22:12:49.198Z,19.70
2018-09-18T22:16:57.488Z,19.70
2018-09-18T22:21:05.834Z,19.60
2018-09-18T22:25:14.194Z,19.60
2018-09-18T22:29:22.601Z,19.50
2018-09-18T22:33:30.877Z,19.40
2018-09-18T22:37:39.134Z,19.30
2018-09-18T22:41:47.409Z,19.30
2018-09-18T22:45:55.778Z,19.30
2018-09-18T22:50:04.075Z,19.30
2018-09-18T22:54:12.353Z,19.40
2018-09-18T22:58:20.641Z,19.40
2018-09-18T23:02:28.941Z,19.30
2018-09-18T23:06:37.245Z,19.20
2018-09-18T23:10:45.504Z,19.20
2018-09-18T23:14:53.772Z,19.20
2018-09-18T23:19:02.341Z,19.20
2018-09-18T23:23:10.667Z,19.10
2018-09-18T23:27:18.939Z,19.00
2018-09-18T23:31:27.236Z,19.00
2018-09-18T23:35:35.530Z,18.90
2018-09-18T23:39:43.788Z,18.90
2018-09-18T23:43:52.057Z,18.80
2018-09-18T23:48:00.383Z,18.80
2018-09-18T23:52:08.727Z,18.80
2018-09-18T23:56:17.002Z,18.80
